View Sortable Currents For Network
ASOSAWOSCoCoRaHSCOOPDCPISUSM
SchoolNetOtherSCANMy FavoritesBy StateRWIS
RWIS SurfaceRWIS TrafficRWIS SoilBy NWS WFOUSCRN
Select Network:
Include METARS:
Sort Order: Format:

Times shown are for timezone: America/Indiana/Indianapolis. The local day summary is based on that timezone.
Table sorted by: (Observation Time)     Click on a column to sort it. Click on site ID for more information. You can download data from this network here and you can view daily summaries on this network.
ADD: ID Station Ob Time Present Wx Temps °F   Wind [knots] Precip Clouds
Air Hi Lo Dewp Feels RH % Alti Vsby Speed Drct Gust @ Time 1 Hour Today Level 1 Level 2 Level 3 Level 4
C62Kendallville01:15 PM303019 23 22 74 30.23 10 7W7 @ 03:55 AM0 OVC 1300
ANQAngola01:15 PM303019 25 25 80 30.21 10 4WSW12 @ 02:15 AM0 OVC 1500
RIDRichmond01:15 PMBR232316 23 16 100 30.25 3 5N6 @ 02:35 AM0 OVC 500
MCXMonticello01:15 PM272715 23 23 83 30.27 10 3W6 @ 05:55 AM0 OVC 1100
PLDPortland01:15 PMBR232314 23 23 100 30.26 1.5 0N0 OVC 300
INDINDIANAPOLIS01:03 PMBR232316 20 16 88 30.28 4 5WNW9 @ 07:50 AM0 T OVC 700
OKKKOKOMO12:56 PMBR252516 24 19 96 30.28 3 4SW8 @ 04:45 AM0 T OVC 300
MQJIndianapolis Mount Comfort12:56 PM232314 23 18 100 30.28 4 3N8 @ 07:56 AM0 OVC 700
GUSGRISSOM AFB/PERU12:56 PM252517 25 25 100 30.25 9 0N7 @ 06:01 AM0 OVC 500
HNBHUNTINGBURG12:56 PM353519 21 32 56 30.28 10 3NW7 @ 01:56 AM0 CLR
FRHFrench Lick12:55 PM343421 12 34 40 30.26 10 0N7 @ 12:15 AM0 CLR
ASWWARSAW MUNI12:55 PM303019 25 27 80 30.25 10 3WSW7 @ 02:35 AM0 OVC 1200
HHGHuntington12:55 PM262616 24 21 91 30.26 10 4W6 @ 04:55 AM0 OVC 900
TYQIndianapolis Exec12:55 PMBR212111 21 16 100 30.28 1.5 3NNW7 @ 06:55 AM0 OVC 300
RCRRochester12:55 PM323221 27 26 30.26 10 5WSW6 @ 02:55 AM0 OVC 1200
MZZMarion12:55 PMBRM00 M M M 30.28 3 0N0 OVC 300
C65Plymouth12:55 PM303021 30 30 100 30.24 10 0N10 @ 02:55 AM0 BKN 1800
GPCGreencastle12:55 PMBR212118 19 21 93 30.29 5 0N0 OVC 500
HFYIndianapolis - Greenwood Muni12:55 PM242413 22 18 91 30.29 3 4NW5 @ 05:15 AM0 OVC 700
GGPLogansport12:55 PM272719 23 23 86 30.28 10 3SSW7 @ 05:15 AM0 OVC 800
HLBBatesville12:55 PMBR232516 23 16 100 30.26 3 5NE7 @ 11:35 AM0 OVC 600
DCYDaviess City12:55 PM323218 22 27 30.29 10 4NNW6 @ 12:55 AM0 CLR
CFJCrawfordsville12:55 PMBR222210 22 22 100 30.29 2.5 0N6 @ 06:55 AM0 OVC 400
FKRFrankfort 12:55 PMBR262617 23 26 89 30.29 2 0N6 @ 03:55 AM0 OVC 300
GWBAuburn12:55 PM282818 27 28 93 30.25 10 0N5 @ 03:55 AM0 OVC 1200
SBNSOUTH BEND12:54 PM323226 23 25 30.24 10 7W8 @ 12:20 AM0 SCT 1800
LAFLAFAYETTE12:54 PMBR252514 23 18 92 30.29 5 5W7 @ 04:20 AM0 OVC 700
FWAFORT WAYNE12:54 PM292918 25 24 85 30.26 7 4W8 @ 04:00 AM0 T OVC 1000
GSHGOSHEN12:53 PM303119 25 25 81 30.23 7 4W10 @ 01:55 AM0 0 OVC 1400
MIEMUNCIE12:53 PMBR242413 21 20 88 30.27 1.5 3N17 @ 09:15 AM0 OVC 300
HUFTERRE HAUTE12:53 PMBR232416 22 17 95 30.31 4 4NNE7 @ 08:00 AM0 OVC 600
BMGBloomington12:53 PMBR242414 23 20 96 30.27 1.75 3NW8 @ 09:33 AM0 OVC 300
GEZSHELBYVILLE12:53 PMBR242516 20 16 84 30.27 5 6NW7 @ 09:11 AM0 OVC 700
EYEINDIANAPOLIS12:53 PMBR232419 20 23 88 30.28 5 0N10 @ 07:25 AM0 OVC 700
EKMELKHART MUNICIPA12:52 PM323228 25 24 30.23 10 8W8 @ 11:52 AM0 BKN 1800
BAKCOLUMBUS/BALKALA12:45 PMBR252518 19 25 80 30.29 3 0N8 @ 10:15 AM0 OVC 500
AIDANDERSON MUNICIP12:45 PM212113 21 21 100 30.28 0N7 @ 07:35 AM0 OVC 500
VPZVALPARAISO11:56 AMHZ293126 22 21 75 30.26 4 7SW8 @ 10:56 AM0 OVC 600
OXIKnox11:55 AM323227 25 26 30.25 10 5W8 @ 01:15 AM0 CLR
PPOLa Porte11:55 AM303127 23 24 73 30.25 10 5WSW7 @ 11:15 AM0 CLR
RZLRensselaer11:55 AMBR282825 27 22 93 30.28 3 5SW5 @ 03:35 AM0 OVC 700
MGCMichigan City11:55 AM323228 21 26 30.25 10 5W7 @ 11:35 AM0 CLR
EVVEVANSVILLE11:54 AM393921 20 39 46 30.29 10 0N7 @ 12:50 AM0 CLR
GYYGARY REGIONAL11:45 AM323223 23 26 30.27 7 6SW6 @ 11:45 AM0 CLR